Terminal Aerodrome Forecast
Issued by NWS St Louis, MO

Home | Current Version | Previous Version | Text Only | Print | Product List | Glossary On
Versions: 1 2 3 4 5 6 7 8 9 10 11 12 13 14 15 16 17 18 19 20 21 22 23 24 25
000
FTUS43 KLSX 020600 AAA
TAFCOU
TAF AMD
KCOU 020636Z 0207/0306 VRB03KT 6SM BR SCT250
      TEMPO 0207/0211 3SM BR
     FM021500 09005KT P6SM SCT080
     FM030200 11007KT P6SM BKN040=

USA.gov is the U.S. government's official web portal to all federal, state and local government web resources and services.